Time;durP1;ratioP1;P1;durP2;ratioP2;P2;SDS_P1;SDS_P2;PMS_P1;PMS_P2;Temp;Humidity;BMP_temperature;BMP_pressure;BME280_temperature;BME280_humidity;BME280_pressure;Samples;Min_cycle;Max_cycle;Signal;HPM_P1;HPM_P2
2023/01/15 00:00:38;;;;;;;;;;;;;;;9.60;48.13;99567.91;7393037;19;19923;-61
2023/01/15 00:03:04;;;;;;;;;;;;;;;9.50;48.31;99565.78;7393023;19;19915;-62
2023/01/15 00:05:29;;;;;;;;;;;;;;;9.27;48.88;99560.31;7392969;19;20349;-61
2023/01/15 00:07:55;;;;;;;;;;;;;;;9.25;49.31;99566.13;7392451;19;19911;-59
2023/01/15 00:10:21;;;;;;;;;;;;;;;9.46;48.63;99567.66;7391465;19;19918;-60
2023/01/15 00:12:46;;;;;;;;;;;;;;;9.57;48.36;99565.88;7391686;19;19922;-61
2023/01/15 00:15:12;;;;;;;;;;;;;;;9.58;48.18;99562.03;7392369;19;19914;-60
2023/01/15 00:17:37;;;;;;;;;;;;;;;9.56;48.58;99572.47;7389921;19;19922;-60
2023/01/15 00:20:03;;;;;;;;;;;;;;;9.63;48.45;99571.84;7392602;19;19930;-61
2023/01/15 00:22:29;;;;;;;;;;;;;;;9.50;48.08;99568.50;7393057;19;19911;-62
2023/01/15 00:27:39;;;;;;;;;;;;;;;9.49;48.29;99564.19;7392289;19;19999;-62
2023/01/15 00:30:06;;;;;;;;;;;;;;;9.53;47.86;99575.91;7392524;19;19924;-62
2023/01/15 00:32:31;;;;;;;;;;;;;;;9.39;47.99;99564.81;7391743;19;19919;-62
2023/01/15 00:34:57;;;;;;;;;;;;;;;9.45;47.98;99575.03;7392328;19;19919;-62
2023/01/15 00:37:23;;;;;;;;;;;;;;;9.54;47.67;99572.06;7389737;19;20008;-62
2023/01/15 00:39:49;;;;;;;;;;;;;;;9.54;47.19;99582.97;7392141;19;19910;-60
2023/01/15 00:42:15;;;;;;;;;;;;;;;9.37;47.28;99584.22;7391810;19;20338;-61
2023/01/15 00:44:41;;;;;;;;;;;;;;;9.47;46.99;99574.69;7392522;19;19938;-60
2023/01/15 00:47:13;;;;;;;;;;;;;;;9.52;47.03;99579.03;7389661;19;19915;-60
2023/01/15 00:49:38;;;;;;;;;;;;;;;9.25;47.27;99587.91;7392022;19;19918;-61
2023/01/15 00:52:04;;;;;;;;;;;;;;;9.28;47.24;99591.84;7391961;19;19907;-60
2023/01/15 00:54:30;;;;;;;;;;;;;;;9.07;47.55;99597.69;7391942;19;20340;-60
2023/01/15 00:56:55;;;;;;;;;;;;;;;9.32;47.44;99594.66;7388871;19;19956;-60
2023/01/15 00:59:21;;;;;;;;;;;;;;;9.39;47.12;99592.81;7389699;19;19946;-60
2023/01/15 01:01:47;;;;;;;;;;;;;;;9.35;46.85;99586.53;7391136;19;19923;-60
2023/01/15 01:04:12;;;;;;;;;;;;;;;9.27;46.98;99584.84;7391053;19;19911;-60
2023/01/15 01:06:38;;;;;;;;;;;;;;;9.36;46.92;99587.31;7395092;19;19922;-60
2023/01/15 01:09:04;;;;;;;;;;;;;;;9.39;46.46;99589.31;7397937;19;19914;-60
2023/01/15 01:11:32;;;;;;;;;;;;;;;9.48;46.32;99598.03;7398719;19;19919;-59
2023/01/15 01:14:00;;;;;;;;;;;;;;;9.54;46.23;99598.53;7396198;19;19915;-61
2023/01/15 01:16:29;;;;;;;;;;;;;;;9.61;46.20;99598.66;7397450;19;20260;-58
2023/01/15 01:18:55;;;;;;;;;;;;;;;9.38;46.55;99604.06;7398404;19;19911;-60
2023/01/15 01:21:21;;;;;;;;;;;;;;;9.09;47.30;99600.84;7398361;19;20241;-60
2023/01/15 01:23:47;;;;;;;;;;;;;;;9.30;46.72;99610.53;7398045;19;19915;-59
2023/01/15 01:26:13;;;;;;;;;;;;;;;9.13;47.10;99607.13;7396140;19;20237;-61
2023/01/15 01:28:39;;;;;;;;;;;;;;;9.24;46.90;99608.13;7396894;19;20402;-60
2023/01/15 01:31:05;;;;;;;;;;;;;;;9.22;47.04;99604.97;7396521;19;20311;-61
2023/01/15 01:33:31;;;;;;;;;;;;;;;9.48;46.60;99608.91;7395881;19;19918;-60
2023/01/15 01:35:56;;;;;;;;;;;;;;;8.96;47.10;99607.56;7396696;19;19974;-60
2023/01/15 01:38:22;;;;;;;;;;;;;;;9.27;46.92;99610.13;7397052;19;19914;-60
2023/01/15 01:40:48;;;;;;;;;;;;;;;9.26;46.43;99621.38;7398213;19;19918;-60
2023/01/15 01:43:24;;;;;;;;;;;;;;;9.25;46.73;99615.16;7397487;19;19915;-60
2023/01/15 01:45:50;;;;;;;;;;;;;;;9.42;46.33;99607.66;7391263;19;19919;-57
2023/01/15 01:48:17;;;;;;;;;;;;;;;9.27;46.37;99612.84;7395668;19;19946;-58
2023/01/15 01:50:44;;;;;;;;;;;;;;;9.15;46.99;99609.47;7395916;19;20467;-57
2023/01/15 01:53:13;;;;;;;;;;;;;;;9.33;46.92;99602.44;7395957;19;19922;-57
2023/01/15 01:55:39;;;;;;;;;;;;;;;9.48;46.43;99599.97;7395069;19;20268;-57
2023/01/15 01:58:06;;;;;;;;;;;;;;;9.27;46.74;99599.22;7394939;19;19918;-56
2023/01/15 02:00:34;;;;;;;;;;;;;;;9.09;46.90;99604.34;7397605;19;20251;-56
2023/01/15 02:03:00;;;;;;;;;;;;;;;9.26;47.09;99611.25;7397541;19;19940;-56
2023/01/15 02:05:29;;;;;;;;;;;;;;;9.21;46.98;99600.66;7394945;19;19926;-56
2023/01/15 02:07:55;;;;;;;;;;;;;;;9.32;46.61;99605.53;7396155;19;20254;-54
2023/01/15 02:10:21;;;;;;;;;;;;;;;9.34;46.65;99589.63;7395071;19;19944;-55
2023/01/15 02:12:52;;;;;;;;;;;;;;;9.38;46.22;99599.44;7395905;19;19919;-57
2023/01/15 02:15:25;;;;;;;;;;;;;;;9.12;47.00;99600.13;7395546;19;19930;-57
2023/01/15 02:17:54;;;;;;;;;;;;;;;9.17;46.63;99599.03;7396790;19;19974;-57
2023/01/15 02:20:27;;;;;;;;;;;;;;;9.31;46.49;99595.78;7396950;19;19988;-61
2023/01/15 02:22:59;;;;;;;;;;;;;;;9.34;46.30;99601.28;7396701;19;19924;-57
2023/01/15 02:25:31;;;;;;;;;;;;;;;9.00;47.20;99605.69;7394113;19;20331;-57
2023/01/15 02:28:23;;;;;;;;;;;;;;;9.16;46.77;99611.84;7393735;19;19946;-57
2023/01/15 02:30:52;;;;;;;;;;;;;;;9.18;46.65;99614.22;7395409;19;19918;-57
2023/01/15 02:33:25;;;;;;;;;;;;;;;9.38;46.26;99604.06;7392622;19;19956;-57
2023/01/15 02:36:05;;;;;;;;;;;;;;;9.40;46.12;99597.13;7395076;19;20348;-57
2023/01/15 02:38:36;;;;;;;;;;;;;;;9.31;46.35;99602.00;7395164;19;19934;-56
2023/01/15 02:41:04;;;;;;;;;;;;;;;9.42;46.34;99610.38;7396043;19;19926;-57
2023/01/15 02:43:34;;;;;;;;;;;;;;;9.00;46.85;99611.16;7396021;19;20347;-57
2023/01/15 02:46:01;;;;;;;;;;;;;;;9.13;46.68;99617.22;7392473;19;19915;-57
2023/01/15 02:48:28;;;;;;;;;;;;;;;9.37;45.76;99605.25;7393125;19;19924;-57
2023/01/15 02:50:58;;;;;;;;;;;;;;;9.04;46.64;99598.41;7395595;19;19940;-58
2023/01/15 02:53:26;;;;;;;;;;;;;;;9.20;46.08;99612.72;7392273;19;19923;-58
2023/01/15 02:55:54;;;;;;;;;;;;;;;9.24;46.07;99602.66;7393204;19;20296;-58
2023/01/15 02:58:23;;;;;;;;;;;;;;;9.30;46.01;99586.03;7392673;19;19914;-58
2023/01/15 03:00:51;;;;;;;;;;;;;;;9.22;46.08;99590.56;7396214;19;19911;-58
2023/01/15 03:03:35;;;;;;;;;;;;;;;9.24;46.16;99599.16;7394786;19;19911;-58
2023/01/15 03:06:04;;;;;;;;;;;;;;;9.27;45.75;99591.06;7394063;19;19919;-58
2023/01/15 03:08:30;;;;;;;;;;;;;;;9.34;45.42;99597.78;7394870;19;19918;-58
2023/01/15 03:11:06;;;;;;;;;;;;;;;9.21;45.95;99576.16;7392996;19;19926;-58
2023/01/15 03:13:46;;;;;;;;;;;;;;;9.08;46.04;99572.03;7393683;19;19933;-58
2023/01/15 03:16:33;;;;;;;;;;;;;;;9.11;46.20;99571.31;7392548;19;19919;-57
2023/01/15 03:19:08;;;;;;;;;;;;;;;8.96;46.26;99586.59;7392899;19;19915;-58
2023/01/15 03:21:45;;;;;;;;;;;;;;;9.02;46.04;99578.94;7394505;19;19919;-57
2023/01/15 03:24:12;;;;;;;;;;;;;;;8.87;46.24;99570.50;7395112;19;19922;-58
2023/01/15 03:26:38;;;;;;;;;;;;;;;9.19;45.57;99578.47;7389234;19;19931;-58
2023/01/15 03:29:04;;;;;;;;;;;;;;;9.06;45.72;99574.34;7393391;19;19941;-61
2023/01/15 03:31:32;;;;;;;;;;;;;;;9.12;45.78;99562.00;7392930;19;19921;-58
2023/01/15 03:33:57;;;;;;;;;;;;;;;8.98;45.93;99562.53;7392066;19;19947;-58
2023/01/15 03:36:23;;;;;;;;;;;;;;;9.25;45.36;99555.25;7392785;19;19919;-58
2023/01/15 03:38:49;;;;;;;;;;;;;;;9.27;44.93;99557.59;7391789;19;19923;-57
2023/01/15 03:41:33;;;;;;;;;;;;;;;9.03;45.59;99554.09;7394561;19;19999;-58
2023/01/15 03:44:10;;;;;;;;;;;;;;;9.00;45.44;99554.00;7393573;19;19932;-58
2023/01/15 03:47:05;;;;;;;;;;;;;;;8.88;45.64;99557.66;7392797;19;19919;-58
2023/01/15 03:49:37;;;;;;;;;;;;;;;8.83;45.94;99571.56;7389865;19;19920;-58
2023/01/15 03:52:23;;;;;;;;;;;;;;;8.97;45.67;99576.50;7392340;19;19907;-58
2023/01/15 03:54:51;;;;;;;;;;;;;;;9.17;45.18;99563.66;7392848;19;19918;-58
2023/01/15 03:57:20;;;;;;;;;;;;;;;9.06;45.10;99566.16;7391988;19;19914;-58
2023/01/15 03:59:50;;;;;;;;;;;;;;;9.00;44.85;99564.88;7391390;19;19919;-58
2023/01/15 04:02:19;;;;;;;;;;;;;;;9.16;45.22;99553.91;7393252;19;19922;-58
2023/01/15 04:04:46;;;;;;;;;;;;;;;8.88;45.40;99535.88;7393557;19;19915;-58
2023/01/15 04:07:11;;;;;;;;;;;;;;;9.00;45.32;99543.91;7391142;19;19910;-58
2023/01/15 04:09:38;;;;;;;;;;;;;;;9.00;45.17;99554.78;7391330;19;19986;-57
2023/01/15 04:12:04;;;;;;;;;;;;;;;9.03;45.03;99542.38;7391535;19;19931;-58
2023/01/15 04:14:31;;;;;;;;;;;;;;;8.93;44.91;99529.38;7392355;19;20360;-58
2023/01/15 04:16:56;;;;;;;;;;;;;;;8.95;45.33;99535.25;7389861;19;19914;-57
2023/01/15 04:19:22;;;;;;;;;;;;;;;8.94;44.94;99534.47;7392741;19;19915;-56
2023/01/15 04:21:48;;;;;;;;;;;;;;;8.99;44.76;99549.72;7391306;19;19918;-54
2023/01/15 04:24:13;;;;;;;;;;;;;;;9.07;44.65;99544.03;7390672;19;19936;-56
2023/01/15 04:26:39;;;;;;;;;;;;;;;8.86;44.57;99552.56;7391409;19;19915;-56
2023/01/15 04:29:05;;;;;;;;;;;;;;;8.78;44.93;99567.22;7390343;19;19907;-56
2023/01/15 04:31:32;;;;;;;;;;;;;;;9.07;44.26;99549.47;7391898;19;19907;-55
2023/01/15 04:33:58;;;;;;;;;;;;;;;9.13;44.16;99563.56;7388818;19;19929;-55
2023/01/15 04:36:24;;;;;;;;;;;;;;;8.98;44.35;99556.28;7389381;19;19911;-58
2023/01/15 04:38:50;;;;;;;;;;;;;;;8.93;44.27;99540.25;7390786;19;20028;-56
2023/01/15 04:44:06;;;;;;;;;;;;;;;8.97;44.21;99525.56;7391937;19;19922;-56
2023/01/15 04:46:33;;;;;;;;;;;;;;;9.12;44.17;99542.94;7389945;19;19994;-56
2023/01/15 04:48:59;;;;;;;;;;;;;;;9.09;44.13;99532.78;7390658;19;20355;-57
2023/01/15 04:51:25;;;;;;;;;;;;;;;9.02;44.48;99530.72;7391596;19;19915;-56
2023/01/15 04:53:51;;;;;;;;;;;;;;;9.09;43.97;99535.50;7391156;19;19918;-55
2023/01/15 04:56:16;;;;;;;;;;;;;;;9.19;44.03;99528.69;7388550;19;19922;-56
2023/01/15 04:58:42;;;;;;;;;;;;;;;9.15;43.90;99531.34;7391601;19;19925;-55
2023/01/15 05:01:12;;;;;;;;;;;;;;;9.21;43.60;99518.22;7391220;19;19919;-55
2023/01/15 05:03:38;;;;;;;;;;;;;;;9.24;43.85;99525.66;7391482;19;19921;-55
2023/01/15 05:06:04;;;;;;;;;;;;;;;8.94;43.84;99520.06;7390253;19;19923;-55
2023/01/15 05:08:30;;;;;;;;;;;;;;;8.82;44.28;99510.16;7391475;19;19914;-56
2023/01/15 05:10:55;;;;;;;;;;;;;;;9.03;43.76;99517.88;7391268;19;19919;-55
2023/01/15 05:13:21;;;;;;;;;;;;;;;9.10;43.80;99509.88;7390338;19;20292;-55
2023/01/15 05:15:47;;;;;;;;;;;;;;;9.26;43.11;99498.84;7388655;19;19946;-53
2023/01/15 05:18:15;;;;;;;;;;;;;;;9.20;43.37;99513.91;7389132;19;19915;-55
2023/01/15 05:20:41;;;;;;;;;;;;;;;9.29;43.31;99506.28;7391236;19;19922;-55
2023/01/15 05:23:07;;;;;;;;;;;;;;;9.10;43.04;99520.75;7390072;19;19919;-53
2023/01/15 05:25:35;;;;;;;;;;;;;;;9.16;42.91;99513.84;7390127;19;19922;-56
2023/01/15 05:28:01;;;;;;;;;;;;;;;9.11;43.20;99522.31;7390786;19;20236;-56
2023/01/15 05:30:26;;;;;;;;;;;;;;;8.87;43.19;99507.91;7388434;19;19910;-54
2023/01/15 05:32:52;;;;;;;;;;;;;;;9.12;42.71;99502.13;7388043;19;19925;-53
2023/01/15 05:35:18;;;;;;;;;;;;;;;8.92;42.94;99516.94;7390590;19;19919;-54
2023/01/15 05:37:43;;;;;;;;;;;;;;;8.69;43.26;99521.16;7390619;19;19923;-56
2023/01/15 05:40:09;;;;;;;;;;;;;;;8.90;43.47;99511.84;7391398;19;19918;-52
2023/01/15 05:42:35;;;;;;;;;;;;;;;9.14;42.78;99518.09;7391022;19;19938;-56
2023/01/15 05:45:00;;;;;;;;;;;;;;;9.06;43.22;99525.34;7390085;19;19915;-56
2023/01/15 05:47:26;;;;;;;;;;;;;;;8.89;43.33;99523.88;7385751;19;19915;-52
2023/01/15 05:49:52;;;;;;;;;;;;;;;9.18;42.85;99522.47;7391535;19;19915;-54
2023/01/15 05:52:18;;;;;;;;;;;;;;;9.04;43.14;99524.91;7394721;19;19926;-53
2023/01/15 05:54:44;;;;;;;;;;;;;;;9.02;42.96;99530.72;7396537;19;19923;-55
2023/01/15 05:57:11;;;;;;;;;;;;;;;9.00;43.25;99543.09;7394058;19;19914;-55
2023/01/15 05:59:37;;;;;;;;;;;;;;;9.08;43.00;99531.19;7398523;19;19925;-55
2023/01/15 06:02:03;;;;;;;;;;;;;;;8.78;43.55;99531.84;7397765;19;19974;-54
2023/01/15 06:04:29;;;;;;;;;;;;;;;8.99;43.24;99530.66;7397655;19;19915;-53
2023/01/15 06:06:55;;;;;;;;;;;;;;;9.22;43.20;99536.13;7394356;19;19934;-54
2023/01/15 06:09:21;;;;;;;;;;;;;;;8.92;43.40;99531.31;7396847;19;19910;-56
2023/01/15 06:11:48;;;;;;;;;;;;;;;8.80;43.71;99539.63;7397053;19;19937;-55
2023/01/15 06:14:14;;;;;;;;;;;;;;;8.98;43.56;99529.06;7395240;19;19915;-57
2023/01/15 06:16:39;;;;;;;;;;;;;;;9.03;43.30;99536.94;7393411;19;19982;-56
2023/01/15 06:19:06;;;;;;;;;;;;;;;9.04;43.08;99538.53;7394870;19;19919;-55
2023/01/15 06:21:32;;;;;;;;;;;;;;;9.06;43.11;99528.06;7397075;19;19918;-55
2023/01/15 06:23:58;;;;;;;;;;;;;;;8.94;43.20;99528.25;7394884;19;19966;-54
2023/01/15 06:26:23;;;;;;;;;;;;;;;8.63;43.40;99530.78;7394884;19;20417;-57
2023/01/15 06:28:49;;;;;;;;;;;;;;;8.76;43.67;99525.97;7395797;19;19952;-55
2023/01/15 06:31:16;;;;;;;;;;;;;;;8.79;43.73;99538.84;7395307;19;19936;-54
2023/01/15 06:33:42;;;;;;;;;;;;;;;8.89;43.48;99519.22;7392627;19;19925;-54
2023/01/15 06:36:09;;;;;;;;;;;;;;;8.92;43.04;99522.38;7393092;19;20320;-54
2023/01/15 06:38:35;;;;;;;;;;;;;;;8.94;42.84;99522.78;7393585;19;20686;-56
2023/01/15 06:41:02;;;;;;;;;;;;;;;8.88;42.97;99520.38;7396996;19;20181;-57
2023/01/15 06:48:57;;;;;;;;;;;;;;;8.69;42.88;99531.28;7399595;19;19914;-57
2023/01/15 06:51:23;;;;;;;;;;;;;;;8.76;42.93;99525.97;7393131;19;19915;-57
2023/01/15 06:53:49;;;;;;;;;;;;;;;8.63;43.07;99521.81;7393763;19;19990;-58
2023/01/15 06:56:15;;;;;;;;;;;;;;;8.75;42.91;99515.44;7393512;19;19931;-59
2023/01/15 06:58:41;;;;;;;;;;;;;;;8.49;43.27;99506.00;7392929;19;19919;-58
2023/01/15 07:01:10;;;;;;;;;;;;;;;8.37;43.47;99517.81;7392430;19;19918;-57
2023/01/15 07:03:36;;;;;;;;;;;;;;;8.57;43.38;99504.22;7392464;19;19929;-57
2023/01/15 07:06:06;;;;;;;;;;;;;;;8.51;43.10;99507.25;7394494;19;19918;-57
2023/01/15 07:08:31;;;;;;;;;;;;;;;8.57;43.17;99510.44;7392218;19;19949;-58
2023/01/15 07:11:01;;;;;;;;;;;;;;;8.42;43.26;99514.03;7394609;19;20335;-58
2023/01/15 07:13:26;;;;;;;;;;;;;;;8.66;42.80;99510.22;7391119;19;19980;-58
2023/01/15 07:15:56;;;;;;;;;;;;;;;8.76;42.35;99504.19;7394444;19;19919;-58
2023/01/15 07:18:22;;;;;;;;;;;;;;;8.42;43.15;99514.03;7393991;19;19922;-58
2023/01/15 07:20:48;;;;;;;;;;;;;;;8.53;42.72;99517.72;7392766;19;19923;-57
2023/01/15 07:23:14;;;;;;;;;;;;;;;8.23;43.36;99507.41;7394307;19;20373;-58
2023/01/15 07:25:39;;;;;;;;;;;;;;;8.56;42.73;99529.84;7393622;19;19923;-58
2023/01/15 07:28:05;;;;;;;;;;;;;;;8.06;43.57;99524.91;7393472;19;20364;-58
2023/01/15 07:30:30;;;;;;;;;;;;;;;8.52;42.92;99516.19;7394401;19;19918;-57
2023/01/15 07:32:56;;;;;;;;;;;;;;;8.43;43.01;99513.69;7392324;19;19923;-57
2023/01/15 07:35:25;;;;;;;;;;;;;;;8.55;42.71;99510.03;7391575;19;19922;-57
2023/01/15 07:37:51;;;;;;;;;;;;;;;8.59;42.79;99518.25;7392985;19;19934;-57
2023/01/15 07:40:17;;;;;;;;;;;;;;;8.45;42.94;99516.03;7391371;19;19918;-57
2023/01/15 07:51:15;;;;;;;;;;;;;;;8.23;43.09;99517.47;7388854;19;19915;-57
2023/01/15 07:53:41;;;;;;;;;;;;;;;8.25;43.12;99517.94;7389702;19;19928;-57
2023/01/15 07:56:10;;;;;;;;;;;;;;;8.13;43.57;99521.56;7391205;19;20328;-57
2023/01/15 07:58:39;;;;;;;;;;;;;;;7.99;43.80;99519.31;7390942;19;19926;-57
2023/01/15 08:01:04;;;;;;;;;;;;;;;8.09;43.87;99521.47;7392516;19;19934;-57
2023/01/15 08:03:30;;;;;;;;;;;;;;;7.95;43.95;99508.38;7392962;19;20348;-57
2023/01/15 08:05:56;;;;;;;;;;;;;;;8.18;43.25;99515.06;7390081;19;20316;-57
2023/01/15 08:08:22;;;;;;;;;;;;;;;7.82;43.92;99525.94;7390846;19;19915;-57
2023/01/15 08:16:28;;;;;;;;;;;;;;;8.10;42.47;99520.34;7391372;19;19927;-57
2023/01/15 08:18:54;;;;;;;;;;;;;;;8.31;42.08;99519.22;7391713;19;19925;-57
2023/01/15 08:21:20;;;;;;;;;;;;;;;8.14;42.31;99515.75;7392025;19;19919;-57
2023/01/15 08:23:46;;;;;;;;;;;;;;;8.07;41.89;99507.47;7392332;19;19927;-57
2023/01/15 08:26:12;;;;;;;;;;;;;;;8.11;41.79;99519.22;7392049;19;19919;-57
2023/01/15 08:28:38;;;;;;;;;;;;;;;7.84;41.99;99522.88;7391922;19;19946;-57
2023/01/15 08:31:04;;;;;;;;;;;;;;;7.98;41.57;99506.91;7390735;19;20237;-58
2023/01/15 08:33:31;;;;;;;;;;;;;;;8.34;41.45;99510.38;7390713;19;19975;-57
2023/01/15 08:37:26;;;;;;;7.13;1.48;;;;;;;8.60;40.42;99514.38;6896176;19;9878888;-57
2023/01/15 08:39:52;;;;;;;9.68;1.55;;;;;;;8.29;40.82;99521.50;7425097;19;20396;-57
2023/01/15 08:42:21;;;;;;;7.05;1.48;;;;;;;8.05;40.83;99515.19;7427098;19;20092;-56
2023/01/15 08:44:47;;;;;;;7.95;1.58;;;;;;;8.32;39.90;99521.59;7424788;19;19998;-57
2023/01/15 08:47:14;;;;;;;6.95;1.50;;;;;;;8.25;39.51;99507.84;7423381;19;20421;-56
2023/01/15 08:49:40;;;;;;;6.25;1.40;;;;;;;8.04;39.90;99510.88;7424958;19;20089;-55
2023/01/15 08:52:05;;;;;;;7.78;1.30;;;;;;;7.73;40.39;99517.97;7426637;19;20431;-54
2023/01/15 08:54:31;;;;;;;9.73;1.58;;;;;;;7.76;39.98;99509.13;7426066;19;20030;-54
2023/01/15 08:56:58;;;;;;;9.13;1.90;;;;;;;8.00;39.60;99518.19;7424264;19;20029;-54
2023/01/15 08:59:24;;;;;;;8.10;1.60;;;;;;;7.54;40.50;99515.97;7424933;19;20014;-54
2023/01/15 09:01:50;;;;;;;9.05;1.70;;;;;;;7.75;39.92;99510.25;7424829;19;19999;-53
2023/01/15 09:04:18;;;;;;;8.27;1.55;;;;;;;7.82;40.09;99509.63;7423908;19;20093;-51
2023/01/15 09:06:45;;;;;;;10.90;1.70;;;;;;;7.83;40.41;99513.13;7424552;19;20433;-54
2023/01/15 09:09:12;;;;;;;8.68;1.85;;;;;;;7.61;40.86;99537.06;7424932;19;19987;-55
2023/01/15 09:11:41;;;;;;;6.63;1.48;;;;;;;7.59;41.43;99523.06;7424460;19;19995;-54
2023/01/15 09:14:08;;;;;;;10.55;1.55;;;;;;;7.75;40.77;99529.28;7424416;19;20323;-52
2023/01/15 09:16:35;;;;;;;8.63;1.67;;;;;;;7.70;41.03;99524.13;7421973;19;20141;-53
2023/01/15 09:19:05;;;;;;;12.57;2.08;;;;;;;7.68;41.50;99529.13;7425579;19;19999;-55
2023/01/15 09:21:32;;;;;;;8.00;1.50;;;;;;;7.74;41.37;99530.41;7425991;19;20442;-54
2023/01/15 09:23:58;;;;;;;9.65;1.73;;;;;;;7.75;41.42;99532.00;7426814;19;19998;-54
2023/01/15 09:26:38;;;;;;;11.00;2.08;;;;;;;7.69;42.43;99521.75;7424580;19;20009;-54
2023/01/15 09:29:06;;;;;;;10.23;2.28;;;;;;;7.52;41.71;99528.34;7423971;19;20003;-54
2023/01/15 09:31:32;;;;;;;9.55;2.10;;;;;;;7.30;42.37;99525.09;7426223;19;20001;-57
2023/01/15 09:33:58;;;;;;;8.95;1.52;;;;;;;7.53;41.61;99519.84;7422608;19;20596;-54
2023/01/15 09:36:30;;;;;;;7.55;1.80;;;;;;;8.15;40.43;99525.50;7421247;19;20077;-55
2023/01/15 09:38:58;;;;;;;11.50;2.25;;;;;;;7.51;41.13;99526.75;7422820;19;20010;-55
2023/01/15 09:44:27;;;;;;;13.48;1.90;;;;;;;8.07;40.32;99542.78;7425915;19;20475;-55
2023/01/15 09:47:16;;;;;;;8.57;1.40;;;;;;;7.87;40.14;99541.19;7414815;19;20028;-56
2023/01/15 09:49:54;;;;;;;10.27;1.55;;;;;;;8.16;39.21;99535.25;7397367;19;20025;-54
2023/01/15 09:52:23;;;;;;;10.80;1.38;;;;;;;8.28;39.31;99563.41;7394121;19;19999;-54
2023/01/15 09:55:11;;;;;;;8.43;1.20;;;;;;;8.16;39.49;99529.81;7393784;19;20002;-54
2023/01/15 09:57:37;;;;;;;9.55;1.98;;;;;;;8.07;39.44;99531.16;7393452;19;20005;-53
2023/01/15 10:00:05;;;;;;;11.50;1.38;;;;;;;8.00;39.55;99520.91;7394354;19;20086;-54
2023/01/15 10:02:54;;;;;;;9.73;1.67;;;;;;;8.02;39.83;99529.47;7394624;19;20006;-55
2023/01/15 10:05:30;;;;;;;9.25;1.27;;;;;;;8.04;39.54;99529.13;7394993;19;20591;-55
2023/01/15 10:08:14;;;;;;;10.18;1.83;;;;;;;8.06;39.90;99530.34;7392831;19;20490;-53
2023/01/15 10:10:45;;;;;;;10.57;1.45;;;;;;;8.10;39.25;99528.50;7394178;19;20003;-54
2023/01/15 10:13:21;;;;;;;7.00;1.27;;;;;;;8.13;39.69;99524.25;7393539;19;20474;-53
2023/01/15 10:15:48;;;;;;;6.93;1.27;;;;;;;8.31;39.23;99513.78;7392155;19;20007;-54
2023/01/15 10:18:20;;;;;;;10.05;1.75;;;;;;;8.31;39.47;99530.91;7395219;19;20024;-54
2023/01/15 10:21:16;;;;;;;7.85;1.27;;;;;;;8.49;39.30;99525.81;7395408;19;20011;-54
2023/01/15 10:23:53;;;;;;;8.05;1.50;;;;;;;8.37;39.42;99512.38;7393265;19;20002;-54
2023/01/15 10:26:46;;;;;;;9.27;1.70;;;;;;;8.33;39.96;99535.97;7391850;19;20010;-52
2023/01/15 10:29:15;;;;;;;9.27;1.38;;;;;;;8.21;39.70;99514.34;7394884;19;20025;-55
2023/01/15 10:32:12;;;;;;;5.75;1.33;;;;;;;8.41;39.66;99518.66;7395751;19;20448;-54
2023/01/15 10:35:20;;;;;;;10.98;1.85;;;;;;;8.49;39.68;99520.38;7392664;19;20352;-55
2023/01/15 10:38:12;;;;;;;10.05;1.90;;;;;;;8.39;39.89;99499.22;7394426;19;20026;-54
2023/01/15 10:41:14;;;;;;;6.55;1.48;;;;;;;8.92;38.89;99501.38;7394307;19;19999;-55
2023/01/15 10:44:24;;;;;;;10.95;2.08;;;;;;;8.79;39.23;99472.78;7392053;19;20023;-54
2023/01/15 10:46:58;;;;;;;7.25;1.85;;;;;;;8.81;38.91;99519.44;7389264;19;20005;-55
2023/01/15 10:49:27;;;;;;;6.88;1.70;;;;;;;8.18;39.82;99493.31;7394470;19;20003;-55
2023/01/15 10:52:07;;;;;;;9.65;1.83;;;;;;;8.41;39.55;99515.16;7392304;19;20007;-54
2023/01/15 10:54:41;;;;;;;8.35;1.88;;;;;;;8.43;39.66;99519.13;7394561;19;20003;-53
2023/01/15 10:57:17;;;;;;;8.95;1.77;;;;;;;8.04;41.05;99508.16;7389108;19;20327;-53
2023/01/15 10:59:51;;;;;;;8.32;1.33;;;;;;;7.91;42.23;99585.50;7392328;19;20002;-53
2023/01/15 11:02:25;;;;;;;5.10;1.13;;;;;;;7.16;44.31;99593.38;7391698;19;20455;-53
2023/01/15 11:04:52;;;;;;;4.97;0.60;;;;;;;6.53;45.40;99503.66;7393718;19;20006;-54
2023/01/15 11:07:21;;;;;;;2.50;0.28;;;;;;;6.40;45.06;99527.34;7390793;19;20006;-53
2023/01/15 11:09:47;;;;;;;2.15;0.60;;;;;;;6.62;44.47;99520.59;7392086;19;20010;-52
2023/01/15 11:20:33;;;;;;;5.95;1.20;;;;;;;6.66;45.18;99513.31;7392718;19;20083;-51
2023/01/15 11:23:07;;;;;;;4.05;0.82;;;;;;;6.90;45.55;99501.56;7393206;19;19999;-52
2023/01/15 11:25:33;;;;;;;5.63;1.15;;;;;;;7.16;44.52;99505.72;7392288;19;20013;-52
2023/01/15 11:28:03;;;;;;;5.55;1.50;;;;;;;7.16;44.41;99517.41;7391886;19;20003;-53
2023/01/15 11:30:32;;;;;;;7.00;1.75;;;;;;;7.03;45.19;99513.97;7391588;19;20003;-53
2023/01/15 11:33:02;;;;;;;5.80;1.38;;;;;;;7.11;45.01;99517.66;7390145;19;20003;-53
2023/01/15 11:35:30;;;;;;;5.20;1.20;;;;;;;7.16;44.83;99522.03;7391528;19;20119;-49
2023/01/15 11:38:12;;;;;;;7.95;1.10;;;;;;;7.18;46.19;99536.81;7392793;19;20017;-49
2023/01/15 11:40:38;;;;;;;9.20;1.60;;;;;;;7.30;45.05;99510.75;7393017;19;19999;-53
2023/01/15 11:52:14;;;;;;;8.35;1.25;;;;;;;7.58;44.92;99497.06;7392479;19;20014;-54
2023/01/15 11:54:45;;;;;;;8.43;1.20;;;;;;;7.57;45.10;99498.19;7391792;19;20453;-55
2023/01/15 11:57:11;;;;;;;6.05;1.40;;;;;;;7.64;44.47;99503.00;7390012;19;20006;-53
2023/01/15 11:59:37;;;;;;;8.88;1.55;;;;;;;7.86;44.01;99493.41;7391833;19;20097;-52
2023/01/15 12:02:32;;;;;;;6.75;1.40;;;;;;;7.94;45.64;99495.91;7390417;19;20572;-52
2023/01/15 12:05:01;;;;;;;7.03;1.48;;;;;;;7.93;44.61;99493.56;7392162;19;20471;-54
2023/01/15 12:07:28;;;;;;;6.03;1.63;;;;;;;7.87;44.72;99484.13;7387513;19;20029;-54
2023/01/15 12:13:38;;;;;;;8.65;1.70;;;;;;;8.00;44.25;99460.31;7389985;19;20005;-52
2023/01/15 12:16:40;;;;;;;11.18;2.03;;;;;;;7.95;44.27;99456.75;7388189;19;20002;-54
2023/01/15 12:19:32;;;;;;;12.05;2.17;;;;;;;8.09;43.42;99452.75;7388773;19;20446;-55
2023/01/15 12:22:23;;;;;;;10.05;3.67;;;;;;;8.12;43.29;99446.59;7390947;19;20006;-55
2023/01/15 12:25:00;;;;;;;5.95;1.58;;;;;;;8.06;43.09;99435.22;7391445;19;20025;-55
2023/01/15 12:27:46;;;;;;;6.70;1.63;;;;;;;7.85;43.37;99440.25;7388708;19;19999;-52
2023/01/15 12:30:12;;;;;;;6.90;1.70;;;;;;;7.99;42.74;99451.38;7391487;19;20009;-54
2023/01/15 12:32:45;;;;;;;10.93;2.00;;;;;;;8.24;42.08;99453.84;7388834;19;20070;-54
2023/01/15 12:35:34;;;;;;;7.47;1.33;;;;;;;7.94;42.43;99451.66;7390436;19;20501;-53
2023/01/15 12:38:12;;;;;;;8.85;1.33;;;;;;;8.02;42.41;99461.53;7387974;19;20015;-54
2023/01/15 12:40:49;;;;;;;7.32;1.60;;;;;;;8.21;42.45;99451.81;7393705;19;19999;-53
2023/01/15 12:46:13;;;;;;;8.90;1.80;;;;;;;7.67;44.46;99481.34;7388231;19;20072;-54
2023/01/15 12:49:22;;;;;;;9.15;1.63;;;;;;;7.86;44.86;99487.97;7388194;19;20003;-55
2023/01/15 12:51:56;;;;;;;7.32;1.92;;;;;;;7.53;45.09;99459.31;7389391;19;20013;-54
2023/01/15 12:54:30;;;;;;;9.10;1.50;;;;;;;7.96;44.23;99465.69;7390975;19;20455;-55
2023/01/15 12:57:15;;;;;;;8.85;1.60;;;;;;;7.79;44.62;99478.53;7388851;19;20023;-55
2023/01/15 12:59:49;;;;;;;8.20;1.60;;;;;;;7.67;44.76;99456.13;7390277;19;20009;-55
2023/01/15 13:02:53;;;;;;;11.32;2.03;;;;;;;7.86;45.19;99442.56;7391282;19;20016;-54
2023/01/15 13:05:26;;;;;;;9.15;1.58;;;;;;;7.79;44.62;99445.91;7389332;19;20413;-55
2023/01/15 13:08:03;;;;;;;10.15;1.77;;;;;;;8.00;44.28;99442.09;7387335;19;20355;-54
2023/01/15 13:10:34;;;;;;;12.40;1.65;;;;;;;7.92;43.87;99426.78;7390314;19;20323;-54
2023/01/15 13:13:29;;;;;;;8.02;1.65;;;;;;;7.87;44.04;99416.22;7390186;19;20481;-54
2023/01/15 13:16:01;;;;;;;7.68;1.80;;;;;;;7.67;44.12;99431.69;7388777;19;20355;-54
2023/01/15 13:19:05;;;;;;;7.93;1.85;;;;;;;7.91;43.28;99417.06;7387153;19;20002;-54
2023/01/15 13:21:33;;;;;;;10.10;1.88;;;;;;;8.08;42.81;99413.94;7387577;19;20361;-55
2023/01/15 13:24:17;;;;;;;12.20;2.38;;;;;;;7.36;44.14;99409.69;7396373;19;20010;-54
2023/01/15 13:26:55;;;;;;;12.55;2.25;;;;;;;7.30;44.25;99408.38;7394734;19;19999;-55
2023/01/15 13:30:05;;;;;;;6.35;1.65;;;;;;;7.57;43.76;99427.59;7396750;19;20011;-54
2023/01/15 13:32:38;;;;;;;12.50;1.73;;;;;;;8.07;42.54;99420.50;7396701;19;20486;-55
2023/01/15 13:35:10;;;;;;;10.20;1.70;;;;;;;8.04;42.51;99434.78;7397366;19;20296;-56
2023/01/15 13:37:58;;;;;;;6.25;1.60;;;;;;;8.11;42.09;99429.53;7391477;19;20275;-55